Time;durP1;ratioP1;P1;durP2;ratioP2;P2;SDS_P1;SDS_P2;PMS_P1;PMS_P2;Temp;Humidity;BMP_temperature;BMP_pressure;BME280_temperature;BME280_humidity;BME280_pressure;Samples;Min_cycle;Max_cycle;Signal;HPM_P1;HPM_P2
2022/11/20 00:01:24;;;;;;;3.15;2.60;;;;;;;12.22;57.27;101986.08;1764844;80;21082;-57
2022/11/20 00:03:52;;;;;;;2.72;2.52;;;;;;;12.22;56.82;101955.63;1764518;80;21076;-58
2022/11/20 00:06:20;;;;;;;5.20;3.10;;;;;;;12.22;56.63;101939.98;1771290;80;21165;-57
2022/11/20 00:08:49;;;;;;;3.45;2.90;;;;;;;12.23;56.51;101943.45;1761297;80;21085;-57
2022/11/20 00:11:20;;;;;;;3.15;2.70;;;;;;;12.22;56.73;101936.06;1775874;80;21478;-57
2022/11/20 00:13:49;;;;;;;2.87;2.50;;;;;;;12.22;56.59;101909.97;1762123;80;21075;-58
2022/11/20 00:16:19;;;;;;;5.40;3.00;;;;;;;12.23;56.34;101897.80;1760490;80;21037;-57
2022/11/20 00:18:47;;;;;;;4.05;2.92;;;;;;;12.21;56.33;101904.77;1769093;80;21093;-58
2022/11/20 00:21:20;;;;;;;3.40;3.10;;;;;;;12.21;56.43;101886.51;1760583;80;21495;-57
2022/11/20 00:23:48;;;;;;;5.00;3.80;;;;;;;12.18;56.61;101878.27;1714438;83;21064;-57
2022/11/20 00:26:16;;;;;;;4.08;3.67;;;;;;;12.20;56.77;101876.94;1714116;83;21075;-58
2022/11/20 00:28:51;;;;;;;5.40;3.47;;;;;;;12.21;57.09;101876.94;1717342;83;21569;-57
2022/11/20 00:31:18;;;;;;;4.20;3.70;;;;;;;12.20;57.15;101863.45;1707471;83;21506;-57
2022/11/20 00:33:46;;;;;;;3.95;3.62;;;;;;;12.20;57.44;101863.89;1717073;83;21089;-57
2022/11/20 00:36:18;;;;;;;5.35;3.27;;;;;;;12.16;57.56;101883.06;1694990;83;21097;-57
2022/11/20 00:38:45;;;;;;;3.60;2.90;;;;;;;12.13;57.66;101896.16;1701895;83;21545;-57
2022/11/20 00:41:14;;;;;;;3.17;2.80;;;;;;;12.14;57.70;101895.27;1713246;83;21022;-58
2022/11/20 00:43:42;;;;;;;4.97;2.98;;;;;;;12.15;57.85;101867.00;1712264;83;21174;-57
2022/11/20 00:46:14;;;;;;;4.92;3.27;;;;;;;12.16;58.13;101826.97;1717139;83;21095;-58
2022/11/20 00:48:41;;;;;;;3.62;3.30;;;;;;;12.16;58.22;101815.23;1710096;83;21036;-58
2022/11/20 00:51:11;;;;;;;4.17;3.77;;;;;;;12.15;58.48;101819.61;1680337;85;21046;-58
2022/11/20 00:53:38;;;;;;;4.40;3.30;;;;;;;12.15;58.37;101834.39;1622965;86;21126;-57
2022/11/20 00:56:07;;;;;;;3.40;2.92;;;;;;;12.15;58.25;101831.78;1664723;85;21038;-57
2022/11/20 00:58:37;;;;;;;6.10;3.33;;;;;;;12.15;58.41;101837.00;1634675;86;21032;-57
2022/11/20 01:01:18;;;;;;;3.90;3.10;;;;;;;12.15;58.49;101831.34;1576078;89;21161;-57
2022/11/20 01:03:48;;;;;;;3.98;3.47;;;;;;;12.16;58.64;101824.36;1539717;92;21177;-58
2022/11/20 01:06:22;;;;;;;8.35;3.50;;;;;;;12.15;58.65;101814.82;1546787;91;21106;-59
2022/11/20 01:08:50;;;;;;;5.72;3.83;;;;;;;12.14;58.95;101801.34;1490006;94;21690;-57
2022/11/20 01:11:20;;;;;;;5.15;3.55;;;;;;;12.14;59.32;101780.03;1481835;95;21126;-57
2022/11/20 01:13:48;;;;;;;5.12;3.90;;;;;;;12.13;59.55;101752.23;1436952;98;21289;-57
2022/11/20 01:16:23;;;;;;;4.80;3.75;;;;;;;12.15;59.62;101749.16;1436048;98;21520;-57
2022/11/20 01:18:53;;;;;;;3.90;3.25;;;;;;;12.14;59.61;101750.46;1435736;99;21181;-57
2022/11/20 01:21:26;;;;;;;4.05;3.47;;;;;;;12.13;59.41;101735.70;1469263;95;21085;-57
2022/11/20 01:23:53;;;;;;;5.15;4.50;;;;;;;12.14;59.60;101746.11;1465861;96;21190;-57
2022/11/20 01:26:23;;;;;;;7.03;3.55;;;;;;;12.15;59.60;101724.81;1466536;96;21100;-57
2022/11/20 01:28:51;;;;;;;4.28;3.85;;;;;;;12.16;59.13;101703.03;1458691;97;21120;-57
2022/11/20 01:31:29;;;;;;;3.92;3.33;;;;;;;12.15;59.21;101705.23;1461192;96;21105;-58
2022/11/20 01:33:57;;;;;;;5.95;4.65;;;;;;;12.16;58.95;101689.98;1406248;100;21149;-57
2022/11/20 01:36:27;;;;;;;5.37;3.77;;;;;;;12.16;59.16;101680.86;1407705;101;21160;-58
2022/11/20 01:38:55;;;;;;;7.83;4.05;;;;;;;12.14;59.36;101674.36;1406890;101;21129;-57
2022/11/20 01:44:11;;;;;;;5.25;4.30;;;;;;;12.12;59.64;101693.09;1425547;99;21169;-58
2022/11/20 01:46:55;;;;;;;6.90;3.90;;;;;;;12.14;59.71;101694.36;1427639;99;21152;-58
2022/11/20 01:49:41;;;;;;;5.53;4.42;;;;;;;12.15;59.88;101680.45;1426204;99;21158;-59
2022/11/20 01:52:19;;;;;;;5.70;4.47;;;;;;;12.16;60.40;101659.98;1408221;100;21213;-57
2022/11/20 01:55:04;;;;;;;7.15;5.00;;;;;;;12.19;60.83;101653.44;1396135;102;21139;-58
2022/11/20 01:57:31;;;;;;;6.87;4.17;;;;;;;12.19;60.66;101645.17;1402875;100;21522;-57
2022/11/20 02:00:11;;;;;;;5.28;4.37;;;;;;;12.18;60.36;101651.69;1413075;99;21191;-58
2022/11/20 02:02:46;;;;;;;9.95;4.87;;;;;;;12.16;60.19;101670.42;1494563;95;21133;-58
2022/11/20 02:05:24;;;;;;;6.80;4.90;;;;;;;12.16;60.31;101662.16;1499409;94;21179;-58
2022/11/20 02:07:51;;;;;;;6.55;4.53;;;;;;;12.17;60.20;101660.42;1457500;97;21124;-58
2022/11/20 02:10:17;;;;;;;5.20;4.40;;;;;;;12.17;59.88;101653.47;1456122;97;21686;-58
2022/11/20 02:15:30;;;;;;;4.92;3.72;;;;;;;12.16;59.31;101639.98;1431985;99;21123;-58
2022/11/20 02:17:56;;;;;;;5.20;4.53;;;;;;;12.16;59.39;101635.20;1441028;99;21203;-57
2022/11/20 02:20:23;;;;;;;4.72;4.22;;;;;;;12.16;59.17;101645.64;1431089;97;21190;-58
2022/11/20 02:23:01;;;;;;;5.15;4.50;;;;;;;12.17;59.30;101641.73;1477294;96;21594;-58
2022/11/20 02:25:27;;;;;;;5.33;4.37;;;;;;;12.19;59.43;101636.48;1459807;97;21134;-58
2022/11/20 02:27:53;;;;;;;10.72;5.08;;;;;;;12.17;59.42;101635.63;1461822;97;21677;-58
2022/11/20 02:30:21;;;;;;;5.80;3.92;;;;;;;12.19;59.32;101633.86;1474934;94;21237;-57
2022/11/20 02:32:47;;;;;;;5.55;4.47;;;;;;;12.20;59.33;101632.97;1533448;92;21074;-57
2022/11/20 02:35:24;;;;;;;5.10;4.10;;;;;;;12.19;59.24;101640.39;1531661;92;21089;-57
2022/11/20 02:37:54;;;;;;;5.10;4.10;;;;;;;12.18;59.45;101642.12;1520288;94;21570;-57
2022/11/20 02:40:21;;;;;;;9.45;4.87;;;;;;;12.19;59.77;101646.91;1528992;92;21117;-57
2022/11/20 02:42:50;;;;;;;4.92;4.42;;;;;;;12.21;59.86;101633.41;1529685;93;21106;-57
2022/11/20 02:45:17;;;;;;;7.05;4.55;;;;;;;12.23;60.00;101621.19;1540012;90;21117;-58
2022/11/20 02:47:44;;;;;;;7.58;4.62;;;;;;;12.24;60.22;101622.94;1569645;89;21090;-58
2022/11/20 02:50:11;;;;;;;7.08;5.37;;;;;;;12.24;60.44;101610.72;1604748;89;21157;-58
2022/11/20 02:52:38;;;;;;;7.78;5.75;;;;;;;12.26;60.58;101608.11;1603706;89;21109;-57
2022/11/20 02:55:07;;;;;;;10.78;6.30;;;;;;;12.28;60.35;101608.95;1604781;89;21043;-57
2022/11/20 02:57:33;;;;;;;12.88;7.37;;;;;;;12.30;60.66;101608.48;1604978;89;21541;-57
2022/11/20 03:00:00;;;;;;;17.85;9.03;;;;;;;12.31;60.49;101619.33;1604943;89;21059;-58
2022/11/20 03:02:31;;;;;;;12.60;8.80;;;;;;;12.31;60.71;101615.41;1604672;89;21153;-58
2022/11/20 03:04:58;;;;;;;11.57;7.08;;;;;;;12.33;60.94;101608.86;1604924;89;21151;-58
2022/11/20 03:07:25;;;;;;;9.55;6.40;;;;;;;12.32;60.93;101605.41;1604874;89;21070;-58
2022/11/20 03:09:51;;;;;;;7.53;6.22;;;;;;;12.32;61.17;101598.89;1604632;89;21122;-59
2022/11/20 03:12:18;;;;;;;8.40;5.50;;;;;;;12.34;61.44;101602.33;1605064;89;21142;-59
2022/11/20 03:14:45;;;;;;;11.43;6.35;;;;;;;12.35;61.43;101592.30;1604975;89;21070;-57
2022/11/20 03:17:12;;;;;;;10.63;7.28;;;;;;;12.35;61.47;101590.99;1604602;89;21070;-57
2022/11/20 03:19:39;;;;;;;12.90;8.88;;;;;;;12.36;61.49;101588.81;1605085;89;21074;-57
2022/11/20 03:22:05;;;;;;;12.00;7.03;;;;;;;12.38;61.58;101590.09;1645149;84;21042;-57
2022/11/20 03:24:32;;;;;;;8.58;5.65;;;;;;;12.39;61.63;101582.23;1699792;84;21078;-57
2022/11/20 03:26:59;;;;;;;7.37;5.67;;;;;;;12.40;61.64;101578.75;1700863;83;21035;-59
2022/11/20 03:29:26;;;;;;;8.65;4.70;;;;;;;12.40;61.84;101590.48;1701234;84;21040;-59
2022/11/20 03:31:52;;;;;;;8.98;4.85;;;;;;;12.42;61.69;101578.28;1704874;84;21015;-60
2022/11/20 03:34:19;;;;;;;9.60;4.83;;;;;;;12.43;61.82;101577.38;1697632;84;21607;-59
2022/11/20 03:36:46;;;;;;;8.33;5.10;;;;;;;12.42;62.01;101583.50;1699477;84;21060;-57
2022/11/20 03:39:13;;;;;;;8.55;4.65;;;;;;;12.43;61.99;101586.52;1752870;80;20991;-58
2022/11/20 03:41:41;;;;;;;7.15;4.40;;;;;;;12.46;62.12;101585.17;1761317;80;21540;-57
2022/11/20 03:44:10;;;;;;;6.53;4.75;;;;;;;12.47;62.41;101579.05;1753983;80;21042;-57
2022/11/20 03:46:37;;;;;;;5.97;4.47;;;;;;;12.48;62.59;101576.88;1775578;80;21559;-57
2022/11/20 03:49:05;;;;;;;4.65;3.92;;;;;;;12.52;62.59;101581.59;1760358;80;21598;-57
2022/11/20 03:51:34;;;;;;;9.98;4.67;;;;;;;12.51;62.52;101583.33;1770690;80;21117;-57
2022/11/20 03:54:05;;;;;;;6.15;4.37;;;;;;;12.50;62.84;101592.06;1759753;80;20995;-58
2022/11/20 03:56:36;;;;;;;6.15;4.37;;;;;;;12.54;62.91;101590.25;1755843;80;21057;-57
2022/11/20 03:59:03;;;;;;;5.90;4.70;;;;;;;12.55;62.93;101594.61;1746416;80;20991;-58
2022/11/20 04:01:33;;;;;;;10.80;4.72;;;;;;;12.56;63.12;101591.96;1754034;80;21053;-58
2022/11/20 04:04:00;;;;;;;5.33;4.47;;;;;;;12.58;63.12;101570.61;1737744;81;21566;-58
2022/11/20 04:06:33;;;;;;;11.03;4.03;;;;;;;12.61;63.19;101562.70;1760507;80;21072;-57
2022/11/20 04:09:00;;;;;;;7.78;5.53;;;;;;;12.61;63.36;101561.87;1762358;80;21105;-58
2022/11/20 04:11:29;;;;;;;9.73;5.55;;;;;;;12.60;63.68;101563.61;1756036;80;21025;-57
2022/11/20 04:13:58;;;;;;;10.63;5.40;;;;;;;12.64;63.80;101560.48;1751642;80;21002;-58
2022/11/20 04:16:25;;;;;;;6.35;5.15;;;;;;;12.67;63.87;101548.70;1760967;81;21039;-58
2022/11/20 04:18:58;;;;;;;9.00;5.62;;;;;;;12.67;64.03;101543.05;1758660;81;21568;-57
2022/11/20 04:21:27;;;;;;;10.48;5.62;;;;;;;12.68;64.32;101533.00;1674447;84;21139;-58
2022/11/20 04:23:54;;;;;;;9.18;5.58;;;;;;;12.69;64.46;101530.82;1671545;85;21073;-57
2022/11/20 04:26:24;;;;;;;10.48;5.45;;;;;;;12.68;64.73;101534.30;1670361;85;21088;-58
2022/11/20 04:28:50;;;;;;;8.08;5.30;;;;;;;12.65;65.02;101529.13;1666332;84;21603;-58
2022/11/20 04:31:21;;;;;;;7.60;5.65;;;;;;;12.63;65.25;101524.38;1669876;85;21030;-58
2022/11/20 04:33:48;;;;;;;11.97;6.00;;;;;;;12.62;65.45;101518.75;1678521;84;21159;-58
2022/11/20 04:36:17;;;;;;;9.53;4.75;;;;;;;12.50;65.96;101516.36;1681305;85;21060;-58
2022/11/20 04:38:44;;;;;;;7.55;4.90;;;;;;;12.32;66.85;101509.28;1680719;85;21100;-58
2022/11/20 04:41:17;;;;;;;10.90;5.47;;;;;;;12.29;67.22;101507.59;1673286;84;21095;-58
2022/11/20 04:43:52;;;;;;;8.90;5.75;;;;;;;12.26;67.46;101501.13;1601035;88;21047;-58
2022/11/20 04:46:19;;;;;;;7.80;5.30;;;;;;;12.26;67.69;101506.34;1604538;88;21431;-60
2022/11/20 04:48:47;;;;;;;15.45;7.30;;;;;;;12.26;67.83;101499.83;1605362;86;21155;-58
2022/11/20 04:51:14;;;;;;;9.55;5.58;;;;;;;12.24;67.99;101495.08;1596333;88;21077;-58
2022/11/20 04:53:41;;;;;;;11.00;6.08;;;;;;;12.24;68.35;101484.64;1604269;88;21134;-58
2022/11/20 04:56:10;;;;;;;8.33;5.22;;;;;;;12.23;68.53;101483.77;1597592;88;21140;-58
2022/11/20 04:58:38;;;;;;;6.40;4.35;;;;;;;12.23;68.75;101478.98;1581631;88;21074;-58
2022/11/20 05:01:12;;;;;;;7.65;4.95;;;;;;;12.22;68.99;101473.33;1606411;88;21060;-58
2022/11/20 05:03:41;;;;;;;10.58;5.50;;;;;;;12.27;69.02;101465.00;1549834;90;21072;-58
2022/11/20 05:06:09;;;;;;;9.40;5.45;;;;;;;12.25;69.26;101457.64;1561016;90;21091;-58
2022/11/20 05:08:35;;;;;;;9.18;5.35;;;;;;;12.24;69.47;101454.63;1549674;91;21091;-58
2022/11/20 05:11:15;;;;;;;9.63;5.65;;;;;;;12.23;69.60;101457.67;1566923;90;21613;-58
2022/11/20 05:13:42;;;;;;;8.50;5.22;;;;;;;12.23;69.87;101464.20;1540606;93;21579;-58
2022/11/20 05:16:13;;;;;;;9.20;5.17;;;;;;;12.24;70.08;101443.73;1535238;93;21092;-60
2022/11/20 05:18:41;;;;;;;10.15;5.75;;;;;;;12.26;70.22;101429.38;1567366;91;21078;-58
2022/11/20 05:21:09;;;;;;;13.20;6.17;;;;;;;12.28;70.51;101433.25;1572680;91;21565;-58
2022/11/20 05:23:36;;;;;;;9.15;5.53;;;;;;;12.29;70.74;101416.25;1570501;91;21094;-58
2022/11/20 05:26:03;;;;;;;8.80;5.87;;;;;;;12.30;71.06;101407.55;1570575;91;21082;-58
2022/11/20 05:28:31;;;;;;;10.40;6.37;;;;;;;12.34;71.42;101397.47;1570441;91;21105;-59
2022/11/20 05:31:14;;;;;;;9.43;5.42;;;;;;;12.40;71.65;101397.35;1570227;91;21101;-59
2022/11/20 05:33:42;;;;;;;9.00;5.78;;;;;;;12.41;71.73;101396.45;1514132;95;21109;-58
2022/11/20 05:36:10;;;;;;;8.28;6.10;;;;;;;12.43;71.91;101394.67;1516913;94;21181;-59
2022/11/20 05:38:37;;;;;;;9.08;6.08;;;;;;;12.46;72.27;101383.31;1521912;94;21062;-59
2022/11/20 05:41:09;;;;;;;8.70;5.10;;;;;;;12.51;72.49;101379.72;1566576;90;21182;-58
2022/11/20 05:43:38;;;;;;;12.18;5.62;;;;;;;12.55;72.57;101373.55;1584008;90;21158;-59
2022/11/20 05:46:07;;;;;;;10.53;6.12;;;;;;;12.59;72.61;101384.34;1583820;91;21168;-58
2022/11/20 05:48:35;;;;;;;12.68;7.25;;;;;;;12.62;72.71;101380.81;1583982;90;21077;-59
2022/11/20 05:51:03;;;;;;;12.60;6.80;;;;;;;12.64;72.78;101379.03;1583778;91;21105;-58
2022/11/20 05:53:32;;;;;;;10.32;6.30;;;;;;;12.68;72.83;101361.97;1583998;90;21561;-59
2022/11/20 05:56:07;;;;;;;10.35;5.72;;;;;;;12.71;72.89;101354.09;1564250;90;21130;-59
2022/11/20 05:58:33;;;;;;;14.70;6.75;;;;;;;12.72;73.26;101353.18;1584205;90;21033;-58
2022/11/20 06:01:14;;;;;;;11.90;6.58;;;;;;;12.76;73.50;101362.66;1624501;87;21033;-58
2022/11/20 06:03:42;;;;;;;11.00;6.20;;;;;;;12.80;73.62;101349.09;1585785;90;21122;-58
2022/11/20 06:06:08;;;;;;;11.53;5.60;;;;;;;12.86;73.67;101345.03;1585801;90;21624;-58
2022/11/20 06:08:36;;;;;;;14.13;6.40;;;;;;;12.88;73.80;101343.28;1585653;90;21118;-59
2022/11/20 06:11:07;;;;;;;10.38;5.60;;;;;;;12.86;74.03;101335.45;1588044;89;21169;-59
2022/11/20 06:13:33;;;;;;;12.88;6.95;;;;;;;12.90;74.10;101326.66;1593521;89;21041;-58
2022/11/20 06:16:02;;;;;;;12.55;5.72;;;;;;;12.93;74.37;101333.58;1585633;89;21070;-59
2022/11/20 06:18:29;;;;;;;18.45;6.75;;;;;;;12.95;74.50;101320.91;1580343;89;21645;-59
2022/11/20 06:21:07;;;;;;;9.03;6.15;;;;;;;12.99;74.61;101316.02;1565341;89;21089;-59
2022/11/20 06:23:34;;;;;;;15.68;6.90;;;;;;;13.02;74.54;101319.85;1578813;89;21062;-59
2022/11/20 06:26:04;;;;;;;12.18;7.58;;;;;;;13.02;74.45;101326.38;1584571;89;21768;-59
2022/11/20 06:28:31;;;;;;;11.50;6.83;;;;;;;13.04;74.56;101318.09;1532381;93;21073;-59
2022/11/20 06:30:58;;;;;;;11.83;7.17;;;;;;;13.06;74.80;101317.61;1551869;89;21145;-59
2022/11/20 06:33:24;;;;;;;11.60;7.08;;;;;;;13.08;74.84;101326.27;1625171;88;21510;-59
2022/11/20 06:35:51;;;;;;;14.87;6.95;;;;;;;13.11;74.84;101337.58;1624914;87;21055;-59
2022/11/20 06:38:19;;;;;;;11.40;7.85;;;;;;;13.14;75.00;101334.87;1611446;88;21078;-60
2022/11/20 06:40:46;;;;;;;13.32;7.85;;;;;;;13.18;75.04;101328.69;1618981;88;21157;-59
2022/11/20 06:43:13;;;;;;;11.18;7.70;;;;;;;13.20;75.10;101329.51;1613957;88;21146;-59
2022/11/20 06:45:40;;;;;;;13.03;7.95;;;;;;;13.23;75.04;101321.61;1615784;88;21101;-59
2022/11/20 06:48:08;;;;;;;15.15;8.83;;;;;;;13.24;74.98;101312.42;1613124;88;21034;-59
2022/11/20 06:50:37;;;;;;;12.53;8.13;;;;;;;13.25;74.90;101304.97;1612863;88;21551;-59
2022/11/20 06:53:05;;;;;;;11.45;8.33;;;;;;;13.29;74.76;101298.78;1612106;88;21083;-60
2022/11/20 06:55:33;;;;;;;10.32;7.50;;;;;;;13.30;74.51;101296.59;1612498;88;21036;-59
2022/11/20 06:57:59;;;;;;;10.85;8.08;;;;;;;13.30;74.50;101295.73;1614884;88;21532;-59
2022/11/20 07:00:26;;;;;;;11.78;8.00;;;;;;;13.30;74.33;101287.88;1637815;85;21077;-59
2022/11/20 07:02:53;;;;;;;8.75;7.22;;;;;;;13.28;74.25;101270.94;1675906;85;21034;-59
2022/11/20 07:05:19;;;;;;;11.57;8.25;;;;;;;13.28;74.15;101279.22;1670530;85;21106;-59
2022/11/20 07:07:47;;;;;;;12.40;7.75;;;;;;;13.28;74.03;101270.08;1668814;84;21125;-59
2022/11/20 07:10:14;;;;;;;15.28;8.85;;;;;;;13.21;74.20;101265.91;1677274;83;21054;-60
2022/11/20 07:12:41;;;;;;;11.78;8.20;;;;;;;13.18;74.42;101255.52;1709426;83;20999;-59
2022/11/20 07:15:08;;;;;;;10.88;7.85;;;;;;;12.89;75.37;101270.11;1699232;83;21358;-59
2022/11/20 07:17:35;;;;;;;10.40;7.67;;;;;;;12.83;75.60;101265.47;1693262;83;21521;-59
2022/11/20 07:20:01;;;;;;;14.23;7.72;;;;;;;12.81;75.84;101263.34;1701138;83;21106;-59
2022/11/20 07:22:28;;;;;;;17.37;8.25;;;;;;;12.81;76.02;101269.43;1699272;83;21050;-59
2022/11/20 07:24:55;;;;;;;12.18;8.13;;;;;;;12.97;75.60;101268.17;1704520;84;21598;-59
2022/11/20 07:27:22;;;;;;;9.88;7.25;;;;;;;13.12;74.97;101268.73;1761247;80;21138;-59
2022/11/20 07:29:49;;;;;;;14.10;7.83;;;;;;;13.13;74.53;101262.62;1761582;80;21152;-59
2022/11/20 07:32:15;;;;;;;12.25;7.58;;;;;;;13.11;74.18;101244.35;1765404;80;21053;-59
2022/11/20 07:34:42;;;;;;;14.63;7.78;;;;;;;13.08;74.25;101250.50;1745378;80;21140;-59
2022/11/20 07:37:09;;;;;;;10.72;7.00;;;;;;;13.15;74.24;101245.99;1769924;80;21087;-60
2022/11/20 07:39:36;;;;;;;11.78;7.35;;;;;;;13.12;74.55;101242.61;1767038;80;21034;-59
2022/11/20 07:42:06;;;;;;;11.95;7.67;;;;;;;13.12;74.47;101224.31;1754113;80;21037;-59
2022/11/20 07:44:34;;;;;;;11.53;6.92;;;;;;;13.10;74.20;101214.35;1756034;80;21087;-59
2022/11/20 07:47:02;;;;;;;13.28;7.95;;;;;;;13.06;74.19;101219.64;1761128;80;21038;-59
2022/11/20 07:49:29;;;;;;;10.40;7.67;;;;;;;13.03;74.18;101223.62;1763001;80;20995;-59
2022/11/20 07:51:55;;;;;;;15.80;8.20;;;;;;;13.03;74.34;101224.92;1765827;80;21058;-59
2022/11/20 07:54:22;;;;;;;12.10;8.15;;;;;;;13.02;74.37;101252.40;1776897;80;21038;-59
2022/11/20 07:56:49;;;;;;;13.40;7.30;;;;;;;13.02;74.37;101253.23;1768320;80;21045;-59
2022/11/20 07:59:16;;;;;;;13.22;8.38;;;;;;;13.02;74.20;101247.17;1762385;80;21537;-59
2022/11/20 08:01:43;;;;;;;16.25;9.35;;;;;;;13.00;74.26;101232.81;1761434;80;21030;-59
2022/11/20 08:04:11;;;;;;;19.07;10.18;;;;;;;13.01;74.48;101220.19;1772864;80;21526;-59
2022/11/20 08:06:39;;;;;;;14.85;8.90;;;;;;;13.04;74.45;101209.67;1753112;80;21023;-59
2022/11/20 08:09:06;;;;;;;15.48;8.48;;;;;;;13.04;74.19;101214.90;1755445;80;21081;-59
2022/11/20 08:14:18;;;;;;;12.10;7.70;;;;;;;13.05;74.09;101197.04;1766890;80;21073;-59
2022/11/20 08:16:47;;;;;;;11.88;8.75;;;;;;;13.06;74.25;101177.00;1757117;80;21513;-59
2022/11/20 08:19:15;;;;;;;13.10;7.90;;;;;;;13.04;74.36;101178.33;1754450;80;21039;-59
2022/11/20 08:21:42;;;;;;;15.08;8.63;;;;;;;13.02;74.30;101195.77;1775195;80;21070;-59
2022/11/20 08:24:10;;;;;;;11.75;7.22;;;;;;;13.01;74.45;101188.84;1761540;80;21029;-59
2022/11/20 08:26:38;;;;;;;13.32;7.03;;;;;;;13.03;74.49;101171.37;1762085;80;21413;-59
2022/11/20 08:29:06;;;;;;;13.65;7.42;;;;;;;13.04;74.66;101163.95;1761462;80;20987;-61
2022/11/20 08:31:32;;;;;;;11.97;7.95;;;;;;;13.05;74.86;101164.38;1762352;80;21050;-59
2022/11/20 08:33:59;;;;;;;15.32;7.42;;;;;;;13.10;75.15;101160.80;1768906;80;21026;-59
2022/11/20 08:36:26;;;;;;;10.75;7.33;;;;;;;13.13;75.13;101154.20;1764112;80;21026;-59
2022/11/20 08:38:54;;;;;;;12.50;6.85;;;;;;;13.15;74.87;101143.26;1753592;80;21061;-59
2022/11/20 08:41:25;;;;;;;14.30;7.87;;;;;;;13.11;75.09;101132.48;1768672;80;21081;-59
2022/11/20 08:44:00;;;;;;;13.25;7.78;;;;;;;13.14;75.24;101134.55;1764867;80;21043;-59
2022/11/20 08:46:36;;;;;;;15.08;7.33;;;;;;;13.14;75.59;101130.64;1762557;80;20996;-59
2022/11/20 08:49:04;;;;;;;12.15;7.20;;;;;;;13.21;75.73;101124.80;1748767;80;21538;-59
2022/11/20 08:51:31;;;;;;;16.15;8.33;;;;;;;13.28;75.61;101119.80;1763883;81;20991;-59
2022/11/20 08:53:57;;;;;;;13.28;7.70;;;;;;;13.39;75.32;101121.69;1751246;80;21576;-59
2022/11/20 08:56:24;;;;;;;13.83;7.03;;;;;;;13.41;75.06;101114.66;1746838;80;21056;-59
2022/11/20 09:01:20;;;;;;;14.90;6.90;;;;;;;13.46;75.13;101122.77;1741899;82;21152;-59
2022/11/20 09:07:45;;;;;;;18.37;12.60;;;;;;;12.41;82.27;101102.84;1828441;76;26078;-60
2022/11/20 09:10:12;;;;;;;13.80;10.95;;;;;;;13.28;76.77;101092.36;1796057;77;21080;-60
2022/11/20 09:12:39;;;;;;;16.20;9.30;;;;;;;13.43;75.83;101091.95;1793323;78;21010;-60
2022/11/20 09:15:08;;;;;;;17.75;9.08;;;;;;;13.45;75.63;101088.84;1790803;78;21033;-57
2022/11/20 09:17:35;;;;;;;17.45;8.30;;;;;;;13.48;75.71;101083.51;1782142;78;21124;-60
2022/11/20 09:20:02;;;;;;;12.73;8.15;;;;;;;13.52;75.72;101086.44;1802889;78;21073;-58
2022/11/20 09:22:29;;;;;;;18.20;9.20;;;;;;;13.55;75.70;101084.63;1794975;78;21073;-60
2022/11/20 09:24:56;;;;;;;12.73;7.92;;;;;;;13.53;75.93;101082.94;1795362;78;21473;-61
2022/11/20 09:27:23;;;;;;;11.68;7.55;;;;;;;13.57;75.99;101074.11;1770233;79;21030;-61
2022/11/20 09:29:49;;;;;;;14.03;8.50;;;;;;;13.59;76.04;101077.53;1795783;78;21045;-58
2022/11/20 09:32:16;;;;;;;22.02;7.92;;;;;;;13.60;76.07;101072.25;1800265;78;21584;-58
2022/11/20 09:34:42;;;;;;;10.58;7.65;;;;;;;13.64;76.21;101063.42;1794215;78;21025;-58
2022/11/20 09:37:09;;;;;;;15.00;8.23;;;;;;;13.69;76.42;101048.46;1766691;79;21565;-58
2022/11/20 09:39:38;;;;;;;14.93;7.97;;;;;;;13.75;76.38;101051.34;1728110;81;21010;-58
2022/11/20 09:42:16;;;;;;;16.15;7.83;;;;;;;13.80;76.46;101048.14;1736319;81;21012;-58
2022/11/20 09:45:04;;;;;;;14.03;8.23;;;;;;;13.85;76.42;101058.86;1722901;81;21039;-58
2022/11/20 09:47:36;;;;;;;16.90;8.78;;;;;;;13.91;76.51;101051.27;1785626;80;21076;-58
2022/11/20 09:50:34;;;;;;;12.10;7.95;;;;;;;13.98;76.43;101052.81;1711023;82;21102;-58
2022/11/20 09:53:26;;;;;;;16.93;8.40;;;;;;;14.02;76.43;101040.48;1652881;86;21073;-58
2022/11/20 09:55:54;;;;;;;19.32;9.48;;;;;;;14.08;76.30;101043.77;1683814;83;21663;-59
2022/11/20 09:58:29;;;;;;;11.05;8.30;;;;;;;14.08;76.08;101050.31;1659246;83;21102;-57
2022/11/20 10:01:00;;;;;;;16.07;7.92;;;;;;;14.09;76.21;101048.55;1627709;86;21647;-58
2022/11/20 10:04:01;;;;;;;13.90;7.85;;;;;;;14.13;76.38;101044.49;1680713;84;21101;-57
2022/11/20 10:06:36;;;;;;;13.70;7.97;;;;;;;14.18;76.51;101042.56;1653952;84;21580;-57
2022/11/20 10:09:18;;;;;;;13.70;8.15;;;;;;;14.24;76.44;101033.20;1669829;84;22157;-58
2022/11/20 10:12:06;;;;;;;13.62;8.30;;;;;;;14.27;76.50;101038.80;1690797;84;21033;-58
2022/11/20 10:14:41;;;;;;;17.12;8.13;;;;;;;14.32;76.55;101048.24;1637733;86;21079;-58
2022/11/20 10:17:41;;;;;;;16.85;8.43;;;;;;;14.37;76.58;101048.97;1675779;84;21073;-57
2022/11/20 10:20:31;;;;;;;13.18;8.28;;;;;;;14.44;76.50;101049.63;1672799;83;21038;-57
2022/11/20 10:23:06;;;;;;;20.12;8.68;;;;;;;14.50;76.53;101048.98;1671650;84;21687;-58
2022/11/20 10:25:42;;;;;;;14.83;7.62;;;;;;;14.55;76.42;101040.50;1681559;83;21026;-58
2022/11/20 10:28:27;;;;;;;24.55;9.18;;;;;;;14.59;76.23;101036.87;1712538;82;21053;-57
2022/11/20 10:31:04;;;;;;;15.53;7.97;;;;;;;14.62;76.07;101036.78;1729052;81;21576;-58
2022/11/20 10:33:41;;;;;;;17.17;7.92;;;;;;;14.65;75.98;101023.56;1784280;78;21013;-57
2022/11/20 10:36:25;;;;;;;24.65;9.60;;;;;;;14.72;75.98;101016.80;1790575;78;21000;-58
2022/11/20 10:39:03;;;;;;;18.67;7.78;;;;;;;14.76;75.94;101007.92;1792156;78;21128;-57
2022/11/20 10:41:40;;;;;;;23.15;7.85;;;;;;;14.82;75.82;101004.64;1763997;80;21053;-57
2022/11/20 10:47:15;;;;;;;20.60;7.28;;;;;;;14.90;75.80;100999.16;1754037;80;21062;-58
2022/11/20 10:49:45;;;;;;;29.40;6.95;;;;;;;14.94;75.84;100999.45;1770123;79;21619;-57
2022/11/20 10:52:30;;;;;;;16.15;7.75;;;;;;;14.98;75.87;100999.73;1751491;81;20982;-58
2022/11/20 10:55:32;;;;;;;14.47;7.22;;;;;;;15.02;75.85;100985.61;1750567;81;21091;-58
2022/11/20 10:58:24;;;;;;;15.50;7.42;;;;;;;15.07;75.88;100975.80;1770416;79;21315;-57
2022/11/20 11:00:51;;;;;;;17.12;7.78;;;;;;;15.13;75.94;100969.02;1658477;85;21058;-57
2022/11/20 11:03:25;;;;;;;15.25;6.83;;;;;;;15.21;76.06;100970.90;1658743;85;21567;-57
2022/11/20 11:06:27;;;;;;;15.13;7.45;;;;;;;15.30;76.12;100957.46;1659251;85;21100;-58
2022/11/20 11:08:57;;;;;;;16.77;7.15;;;;;;;15.36;76.13;100962.47;1653008;85;21021;-57
2022/11/20 11:11:28;;;;;;;18.80;7.20;;;;;;;15.44;76.04;100948.64;1665817;85;21056;-58
2022/11/20 11:14:10;;;;;;;18.10;6.47;;;;;;;15.51;75.93;100950.13;1650416;84;21062;-58
2022/11/20 11:16:51;;;;;;;;;;;;;;;15.58;75.74;100951.58;1631145;86;21124;-58
2022/11/20 11:19:18;;;;;;;15.50;7.12;;;;;;;15.63;75.60;100956.20;1647921;85;20449;-58
2022/11/20 11:21:49;;;;;;;20.68;7.50;;;;;;;15.68;75.41;100959.52;1654175;86;21161;-58
2022/11/20 11:24:23;;;;;;;15.40;7.55;;;;;;;15.71;75.33;100958.52;1615216;87;21058;-58
2022/11/20 11:27:06;;;;;;;22.58;8.23;;;;;;;15.71;75.52;100952.81;1616151;86;21073;-58
2022/11/20 11:29:33;;;;;;;20.65;7.75;;;;;;;15.75;75.50;100957.47;1592593;89;21098;-58
2022/11/20 11:32:20;;;;;;;17.85;7.45;;;;;;;15.78;75.49;100962.61;1552578;90;21161;-59
2022/11/20 11:35:05;;;;;;;20.02;7.17;;;;;;;15.79;75.40;100948.12;1544777;91;21121;-58
2022/11/20 11:37:35;;;;;;;24.52;7.67;;;;;;;15.83;75.15;100949.70;1581335;89;21129;-58
2022/11/20 11:40:06;;;;;;;17.45;8.43;;;;;;;15.83;75.32;100943.14;1611808;87;21093;-58
2022/11/20 11:42:34;;;;;;;26.62;7.87;;;;;;;15.84;75.43;100937.44;1612478;88;21157;-58
2022/11/20 11:45:06;;;;;;;26.35;8.40;;;;;;;15.87;75.55;100940.78;1573337;89;21604;-58
2022/11/20 11:47:47;;;;;;;22.85;7.25;;;;;;;15.91;75.62;100933.19;1564078;89;21557;-58
2022/11/20 11:50:19;;;;;;;24.92;9.18;;;;;;;15.92;75.61;100919.16;1584138;90;21197;-58
2022/11/20 11:53:14;;;;;;;29.25;8.90;;;;;;;15.98;75.69;100921.98;1568390;90;21613;-58